createdAt,value
2022-12-03T00:02:25.557Z,2.40
2022-12-03T00:04:53.301Z,2.40
2022-12-03T00:07:20.565Z,2.40
2022-12-03T00:09:47.566Z,2.40
2022-12-03T00:12:14.737Z,2.40
2022-12-03T00:14:44.844Z,2.30
2022-12-03T00:17:12.510Z,2.30
2022-12-03T00:19:39.677Z,2.20
2022-12-03T00:22:06.854Z,2.20
2022-12-03T00:24:34.207Z,2.30
2022-12-03T00:27:01.311Z,2.30
2022-12-03T00:29:29.327Z,2.30
2022-12-03T00:31:56.544Z,2.30
2022-12-03T00:34:23.925Z,2.20
2022-12-03T00:36:51.009Z,2.30
2022-12-03T00:39:18.125Z,2.30
2022-12-03T00:41:45.084Z,2.30
2022-12-03T00:44:12.341Z,2.20
2022-12-03T00:46:39.546Z,2.20
2022-12-03T00:49:07.004Z,2.20
2022-12-03T00:51:35.961Z,2.30
2022-12-03T00:54:03.202Z,2.30
2022-12-03T00:56:30.422Z,2.30
2022-12-03T00:58:57.517Z,2.30
2022-12-03T01:01:24.732Z,2.30
2022-12-03T01:03:51.958Z,2.30
2022-12-03T01:06:19.145Z,2.30
2022-12-03T01:08:46.204Z,2.30
2022-12-03T01:11:33.269Z,2.30
2022-12-03T01:14:00.265Z,2.30
2022-12-03T01:16:27.569Z,2.30
2022-12-03T01:18:54.869Z,2.40
2022-12-03T01:21:21.972Z,2.30
2022-12-03T01:23:49.407Z,2.20
2022-12-03T01:26:16.474Z,2.20
2022-12-03T01:28:43.678Z,2.20
2022-12-03T01:31:31.129Z,2.20
2022-12-03T01:34:00.547Z,2.20
2022-12-03T01:36:27.705Z,2.20
2022-12-03T01:38:54.870Z,2.20
2022-12-03T01:41:23.864Z,2.10
2022-12-03T01:43:52.594Z,2.10
2022-12-03T01:46:25.580Z,2.10
2022-12-03T01:48:55.894Z,2.10
2022-12-03T01:51:23.700Z,2.10
2022-12-03T01:53:51.649Z,2.10
2022-12-03T01:56:19.202Z,2.10
2022-12-03T01:58:47.704Z,2.10
2022-12-03T02:01:17.340Z,2.10
2022-12-03T02:03:45.910Z,2.10
2022-12-03T02:06:18.196Z,2.10
2022-12-03T02:08:46.454Z,2.00
2022-12-03T02:11:33.957Z,2.00
2022-12-03T02:14:05.508Z,2.00
2022-12-03T02:16:36.066Z,2.00
2022-12-03T02:19:05.299Z,2.00
2022-12-03T02:21:44.004Z,2.00
2022-12-03T02:24:29.315Z,2.00
2022-12-03T02:26:56.367Z,2.00
2022-12-03T02:29:26.167Z,2.00
2022-12-03T02:31:53.317Z,2.00
2022-12-03T02:34:39.316Z,2.00
2022-12-03T02:37:11.346Z,2.00
2022-12-03T02:39:42.926Z,2.00
2022-12-03T02:42:31.048Z,2.10
2022-12-03T02:45:05.434Z,2.00
2022-12-03T02:47:34.032Z,2.10
2022-12-03T02:50:02.107Z,2.00
2022-12-03T02:52:29.484Z,2.00
2022-12-03T02:54:56.757Z,2.00
2022-12-03T02:57:23.955Z,2.00
2022-12-03T02:59:51.624Z,2.10
2022-12-03T03:02:19.352Z,2.10
2022-12-03T03:04:46.459Z,2.10
2022-12-03T03:07:14.609Z,2.00
2022-12-03T03:09:42.059Z,2.10
2022-12-03T03:12:10.301Z,2.10
2022-12-03T03:14:37.758Z,2.10
2022-12-03T03:17:05.274Z,2.10
2022-12-03T03:19:33.062Z,2.10
2022-12-03T03:22:00.705Z,2.20
2022-12-03T03:24:28.087Z,2.10
2022-12-03T03:26:55.418Z,2.10
2022-12-03T03:29:22.600Z,2.10
2022-12-03T03:31:50.042Z,2.20
2022-12-03T03:34:17.674Z,2.10
2022-12-03T03:36:46.080Z,2.10
2022-12-03T03:39:13.823Z,2.10
2022-12-03T03:41:42.601Z,2.10
2022-12-03T03:44:10.112Z,2.10
2022-12-03T03:46:38.766Z,2.20
2022-12-03T03:49:06.912Z,2.20
2022-12-03T03:51:35.815Z,2.20
2022-12-03T03:54:04.540Z,2.20
2022-12-03T03:56:33.420Z,2.20
2022-12-03T03:59:01.508Z,2.30
2022-12-03T04:01:29.790Z,2.30
2022-12-03T04:03:59.694Z,2.30
2022-12-03T04:06:28.088Z,2.20
2022-12-03T04:08:55.844Z,2.30
2022-12-03T04:11:42.875Z,2.30
2022-12-03T04:14:10.038Z,2.30
2022-12-03T04:16:37.136Z,2.20
2022-12-03T04:19:04.411Z,2.20
2022-12-03T04:22:03.274Z,2.20
2022-12-03T04:24:30.594Z,2.20
2022-12-03T04:27:17.531Z,2.20
2022-12-03T04:29:44.741Z,2.20
2022-12-03T04:32:31.639Z,2.30
2022-12-03T04:35:21.292Z,2.30
2022-12-03T04:37:48.429Z,2.30
2022-12-03T04:40:35.582Z,2.30
2022-12-03T04:43:02.635Z,2.30
2022-12-03T04:45:30.083Z,2.40
2022-12-03T04:47:57.221Z,2.40
2022-12-03T04:50:24.400Z,2.40
2022-12-03T04:52:51.459Z,2.40
2022-12-03T04:55:18.597Z,2.40
2022-12-03T04:57:45.651Z,2.50
2022-12-03T05:00:13.472Z,2.40
2022-12-03T05:02:40.780Z,2.40
2022-12-03T05:05:08.419Z,2.50
2022-12-03T05:07:35.813Z,2.50
2022-12-03T05:10:03.746Z,2.50
2022-12-03T05:12:30.813Z,2.60
2022-12-03T05:14:57.868Z,2.60
2022-12-03T05:17:25.029Z,2.60
2022-12-03T05:20:11.999Z,2.60
2022-12-03T05:22:39.133Z,2.50
2022-12-03T05:25:07.058Z,2.50
2022-12-03T05:27:34.907Z,2.50
2022-12-03T05:30:02.263Z,2.50
2022-12-03T05:32:29.422Z,2.50
2022-12-03T05:34:56.859Z,2.50
2022-12-03T05:37:24.681Z,2.60
2022-12-03T05:39:52.215Z,2.60
2022-12-03T05:42:39.261Z,2.60
2022-12-03T05:45:07.157Z,2.60
2022-12-03T05:47:34.247Z,2.60
2022-12-03T05:50:01.500Z,2.60
2022-12-03T05:52:28.495Z,2.60
2022-12-03T05:54:55.973Z,2.60
2022-12-03T05:57:23.235Z,2.60
2022-12-03T05:59:50.456Z,2.60
2022-12-03T06:02:17.867Z,2.60
2022-12-03T06:04:45.098Z,2.60
2022-12-03T06:07:14.208Z,2.60
2022-12-03T06:09:41.850Z,2.60
2022-12-03T06:12:08.891Z,2.60
2022-12-03T06:14:36.116Z,2.50
2022-12-03T06:17:03.257Z,2.50
2022-12-03T06:19:30.420Z,2.50
2022-12-03T06:21:57.767Z,2.60
2022-12-03T06:24:24.884Z,2.60
2022-12-03T06:26:52.283Z,2.60
2022-12-03T06:29:19.250Z,2.60
2022-12-03T06:31:46.694Z,2.60
2022-12-03T06:34:13.736Z,2.60
2022-12-03T06:36:40.933Z,2.60
2022-12-03T06:39:07.921Z,2.60
2022-12-03T06:41:35.095Z,2.60
2022-12-03T06:44:02.271Z,2.70
2022-12-03T06:46:29.518Z,2.60
2022-12-03T06:48:56.855Z,2.60
2022-12-03T06:51:23.973Z,2.70
2022-12-03T06:53:51.140Z,2.70
2022-12-03T06:56:37.831Z,2.70
2022-12-03T06:59:08.876Z,2.80
2022-12-03T07:01:35.941Z,2.80
2022-12-03T07:04:03.019Z,2.80
2022-12-03T07:06:30.278Z,2.80
2022-12-03T07:08:57.408Z,2.90
2022-12-03T07:11:31.824Z,2.90
2022-12-03T07:14:04.722Z,2.90
2022-12-03T07:16:34.017Z,3.00
2022-12-03T07:19:01.428Z,3.10
2022-12-03T07:21:28.577Z,3.00
2022-12-03T07:23:55.591Z,3.10
2022-12-03T07:26:22.882Z,3.10
2022-12-03T07:28:49.920Z,3.10
2022-12-03T07:31:17.386Z,3.10
2022-12-03T07:33:44.821Z,3.10
2022-12-03T07:36:12.021Z,3.10
2022-12-03T07:38:39.215Z,3.10
2022-12-03T07:41:06.470Z,3.20
2022-12-03T07:43:33.774Z,3.20
2022-12-03T07:46:00.797Z,3.20
2022-12-03T07:48:28.238Z,3.20
2022-12-03T07:50:55.407Z,3.30
2022-12-03T07:53:22.633Z,3.30
2022-12-03T07:55:49.892Z,3.30
2022-12-03T07:58:17.134Z,3.30
2022-12-03T08:00:44.487Z,3.30
2022-12-03T08:03:11.532Z,3.30
2022-12-03T08:05:38.672Z,3.30
2022-12-03T08:08:06.271Z,3.30
2022-12-03T08:10:33.474Z,3.30
2022-12-03T08:13:00.793Z,3.30
2022-12-03T08:15:33.848Z,3.20
2022-12-03T08:18:15.021Z,3.10
2022-12-03T08:20:43.461Z,3.10
2022-12-03T08:23:15.156Z,3.10
2022-12-03T08:25:43.740Z,3.10
2022-12-03T08:28:20.569Z,3.20
2022-12-03T08:31:19.646Z,3.20
2022-12-03T08:33:49.569Z,3.20
2022-12-03T08:36:24.831Z,3.20
2022-12-03T08:38:55.712Z,3.20
2022-12-03T08:41:44.069Z,3.10
2022-12-03T08:44:35.077Z,3.10
2022-12-03T08:47:09.765Z,3.10
2022-12-03T08:49:37.849Z,3.00
2022-12-03T08:52:18.579Z,3.10
2022-12-03T08:54:54.174Z,3.20
2022-12-03T08:57:25.915Z,3.30
2022-12-03T09:00:00.088Z,3.30
2022-12-03T09:02:33.190Z,3.30
2022-12-03T09:05:15.917Z,3.30
2022-12-03T09:07:43.503Z,3.40
2022-12-03T09:10:10.863Z,3.40
2022-12-03T09:12:38.061Z,3.40
2022-12-03T09:15:05.645Z,3.40
2022-12-03T09:17:33.215Z,3.50
2022-12-03T09:20:00.363Z,3.50
2022-12-03T09:22:27.505Z,3.60
2022-12-03T09:24:54.875Z,3.50
2022-12-03T09:27:22.998Z,3.60
2022-12-03T09:29:50.741Z,3.60
2022-12-03T09:32:18.766Z,3.60
2022-12-03T09:34:46.953Z,3.50
2022-12-03T09:37:14.096Z,3.50
2022-12-03T09:39:41.233Z,3.50
2022-12-03T09:42:09.583Z,3.50
2022-12-03T09:44:38.241Z,3.40
2022-12-03T09:47:06.027Z,3.40
2022-12-03T09:49:35.676Z,3.50
2022-12-03T09:52:04.414Z,3.50
2022-12-03T09:54:32.614Z,3.50
2022-12-03T09:57:02.866Z,3.60
2022-12-03T09:59:33.669Z,3.60
2022-12-03T10:02:01.882Z,3.70
2022-12-03T10:04:29.370Z,3.80
2022-12-03T10:06:58.606Z,3.80
2022-12-03T10:09:28.384Z,3.80
2022-12-03T10:11:58.089Z,3.80
2022-12-03T10:14:25.405Z,3.90
2022-12-03T10:16:52.778Z,3.90
2022-12-03T10:19:24.426Z,3.80
2022-12-03T10:21:51.820Z,3.80
2022-12-03T10:24:21.449Z,3.80
2022-12-03T10:26:50.750Z,3.80
2022-12-03T10:29:19.322Z,3.80
2022-12-03T10:31:54.449Z,3.90
2022-12-03T10:34:34.754Z,3.90
2022-12-03T10:37:22.347Z,3.80
2022-12-03T10:39:58.666Z,3.80
2022-12-03T10:42:29.752Z,3.80
2022-12-03T10:45:19.253Z,3.80
2022-12-03T10:48:06.235Z,3.80
2022-12-03T10:50:34.483Z,3.90
2022-12-03T10:53:01.696Z,3.90
2022-12-03T10:55:35.998Z,4.00
2022-12-03T10:58:03.299Z,4.10
2022-12-03T11:00:30.416Z,4.10
2022-12-03T11:02:57.768Z,4.10
2022-12-03T11:05:27.566Z,4.10
2022-12-03T11:07:55.186Z,4.00
2022-12-03T11:10:22.517Z,4.00
2022-12-03T11:13:29.472Z,4.00
2022-12-03T11:15:57.024Z,4.00
2022-12-03T11:18:40.247Z,4.00
2022-12-03T11:21:08.861Z,4.10
2022-12-03T11:23:51.919Z,4.10
2022-12-03T11:26:38.978Z,4.20
2022-12-03T11:29:14.477Z,4.20
2022-12-03T11:31:45.201Z,4.30
2022-12-03T11:34:20.799Z,4.20
2022-12-03T11:37:08.142Z,4.10
2022-12-03T11:39:51.280Z,4.20
2022-12-03T11:42:28.984Z,4.30
2022-12-03T11:45:04.846Z,4.30
2022-12-03T11:47:35.382Z,4.30
2022-12-03T11:50:03.922Z,4.30
2022-12-03T11:52:41.629Z,4.40
2022-12-03T11:55:34.543Z,4.40
2022-12-03T11:58:05.693Z,4.30
2022-12-03T12:00:32.780Z,4.40
2022-12-03T12:03:00.156Z,4.40
2022-12-03T12:05:28.579Z,4.40
2022-12-03T12:07:56.951Z,4.40
2022-12-03T12:10:44.422Z,4.40
2022-12-03T12:13:31.918Z,4.40
2022-12-03T12:16:00.698Z,4.40
2022-12-03T12:18:54.851Z,4.40
2022-12-03T12:21:48.562Z,4.40
2022-12-03T12:24:47.124Z,4.40
2022-12-03T12:27:16.999Z,4.40
2022-12-03T12:29:50.259Z,4.40
2022-12-03T12:32:23.162Z,4.40
2022-12-03T12:34:54.199Z,4.50
2022-12-03T12:37:28.508Z,4.50
2022-12-03T12:39:57.131Z,4.40
2022-12-03T12:42:28.887Z,4.40
2022-12-03T12:45:01.766Z,4.40
2022-12-03T12:47:30.168Z,4.40
2022-12-03T12:49:58.631Z,4.40
2022-12-03T12:52:25.856Z,4.40
2022-12-03T12:54:53.105Z,4.40
2022-12-03T12:57:23.134Z,4.30
2022-12-03T12:59:51.648Z,4.40
2022-12-03T13:02:41.548Z,4.30
2022-12-03T13:05:12.663Z,4.30
2022-12-03T13:07:40.913Z,4.30
2022-12-03T13:10:33.617Z,4.30
2022-12-03T13:13:23.276Z,4.30
2022-12-03T13:16:00.225Z,4.40
2022-12-03T13:18:29.966Z,4.30
2022-12-03T13:20:57.140Z,4.40
2022-12-03T13:23:29.838Z,4.40
2022-12-03T13:26:06.385Z,4.40
2022-12-03T13:28:36.775Z,4.40
2022-12-03T13:31:23.059Z,4.30
2022-12-03T13:33:51.283Z,4.30
2022-12-03T13:36:20.993Z,4.20
2022-12-03T13:38:48.515Z,4.20
2022-12-03T13:41:40.486Z,4.20
2022-12-03T13:44:16.196Z,4.20
2022-12-03T13:46:43.495Z,4.20
2022-12-03T13:49:22.120Z,4.20
2022-12-03T13:51:50.587Z,4.10
2022-12-03T13:54:23.962Z,4.10
2022-12-03T13:56:51.413Z,4.10
2022-12-03T13:59:24.418Z,4.10
2022-12-03T14:01:53.050Z,4.10
2022-12-03T14:04:20.229Z,4.10
2022-12-03T14:06:47.544Z,4.00
2022-12-03T14:09:14.897Z,4.00
2022-12-03T14:12:01.794Z,3.90
2022-12-03T14:14:28.853Z,3.90
2022-12-03T14:16:59.838Z,3.90
2022-12-03T14:19:27.377Z,3.90
2022-12-03T14:21:54.642Z,3.90
2022-12-03T14:24:21.799Z,3.90
2022-12-03T14:26:49.017Z,3.90
2022-12-03T14:29:17.250Z,3.90
2022-12-03T14:31:44.363Z,3.90
2022-12-03T14:34:11.549Z,3.90
2022-12-03T14:36:38.738Z,3.80
2022-12-03T14:39:05.766Z,3.80
2022-12-03T14:41:53.002Z,3.80
2022-12-03T14:44:23.817Z,3.80
2022-12-03T14:46:56.596Z,3.80
2022-12-03T14:49:24.455Z,3.80
2022-12-03T14:51:51.722Z,3.80
2022-12-03T14:54:19.027Z,3.80
2022-12-03T14:56:46.614Z,3.80
2022-12-03T14:59:13.910Z,3.80
2022-12-03T15:01:41.471Z,3.80
2022-12-03T15:04:09.095Z,3.80
2022-12-03T15:06:36.414Z,3.80
2022-12-03T15:09:04.081Z,3.80
2022-12-03T15:11:31.534Z,3.70
2022-12-03T15:13:58.721Z,3.80
2022-12-03T15:16:25.856Z,3.70
2022-12-03T15:18:52.877Z,3.80
2022-12-03T15:21:20.097Z,3.80
2022-12-03T15:23:47.235Z,3.80
2022-12-03T15:26:14.269Z,3.80
2022-12-03T15:28:46.716Z,3.80
2022-12-03T15:31:15.713Z,3.70
2022-12-03T15:33:42.934Z,3.70
2022-12-03T15:36:10.284Z,3.70
2022-12-03T15:38:37.824Z,3.80
2022-12-03T15:41:21.411Z,3.80
2022-12-03T15:43:49.166Z,3.80
2022-12-03T15:46:16.796Z,3.80
2022-12-03T15:48:44.295Z,3.80
2022-12-03T15:51:11.518Z,3.90
2022-12-03T15:53:39.888Z,3.80
2022-12-03T15:56:08.512Z,3.90
2022-12-03T15:58:35.770Z,3.80
2022-12-03T16:01:03.065Z,3.80
2022-12-03T16:03:30.367Z,3.80
2022-12-03T16:05:57.750Z,3.80
2022-12-03T16:08:25.974Z,3.80
2022-12-03T16:10:53.304Z,3.80
2022-12-03T16:13:20.553Z,3.90
2022-12-03T16:15:47.963Z,3.80
2022-12-03T16:18:15.106Z,3.80
2022-12-03T16:20:42.388Z,3.70
2022-12-03T16:23:10.130Z,3.70
2022-12-03T16:25:37.237Z,3.70
2022-12-03T16:28:04.767Z,3.80
2022-12-03T16:30:31.966Z,3.80
2022-12-03T16:32:59.256Z,3.80
2022-12-03T16:35:26.860Z,3.80
2022-12-03T16:37:53.962Z,3.80
2022-12-03T16:40:21.153Z,3.80
2022-12-03T16:42:48.225Z,3.80
2022-12-03T16:45:33.485Z,3.80
2022-12-03T16:48:01.903Z,3.80
2022-12-03T16:50:30.415Z,3.80
2022-12-03T16:52:58.311Z,3.80
2022-12-03T16:55:25.520Z,3.80
2022-12-03T16:57:52.509Z,3.80
2022-12-03T17:00:21.874Z,3.80
2022-12-03T17:02:49.258Z,3.80
2022-12-03T17:05:16.448Z,3.80
2022-12-03T17:07:43.726Z,3.80
2022-12-03T17:10:11.703Z,3.80
2022-12-03T17:13:07.656Z,3.80
2022-12-03T17:15:26.183Z,3.80
2022-12-03T17:17:53.568Z,3.80
2022-12-03T17:20:20.745Z,3.80
2022-12-03T17:22:48.111Z,3.80
2022-12-03T17:25:15.414Z,3.80
2022-12-03T17:27:45.384Z,3.80
2022-12-03T17:30:13.422Z,3.80
2022-12-03T17:32:40.751Z,3.70
2022-12-03T17:35:08.718Z,3.70
2022-12-03T17:37:36.200Z,3.70
2022-12-03T17:40:05.748Z,3.70
2022-12-03T17:42:32.977Z,3.70
2022-12-03T17:45:00.277Z,3.70
2022-12-03T17:47:27.623Z,3.80
2022-12-03T17:49:55.741Z,3.80
2022-12-03T17:52:23.432Z,3.80
2022-12-03T17:57:38.123Z,3.80
2022-12-03T18:00:07.050Z,3.80
2022-12-03T18:02:39.522Z,3.80
2022-12-03T18:05:07.289Z,3.80
2022-12-03T18:07:34.454Z,3.80
2022-12-03T18:10:01.867Z,3.80
2022-12-03T18:12:29.093Z,3.80
2022-12-03T18:14:56.425Z,3.70
2022-12-03T18:17:24.209Z,3.70
2022-12-03T18:19:51.692Z,3.70
2022-12-03T18:22:19.243Z,3.70
2022-12-03T18:24:51.551Z,3.70
2022-12-03T18:27:21.299Z,3.80
2022-12-03T18:29:48.723Z,3.70
2022-12-03T18:32:28.186Z,3.80
2022-12-03T18:34:57.509Z,3.70
2022-12-03T18:37:28.568Z,3.80
2022-12-03T18:39:57.758Z,3.80
2022-12-03T18:42:25.946Z,3.80
2022-12-03T18:44:55.798Z,3.80
2022-12-03T18:47:26.902Z,3.80
2022-12-03T18:49:55.537Z,3.80
2022-12-03T18:52:25.043Z,3.80
2022-12-03T18:54:52.759Z,3.70
2022-12-03T18:57:19.983Z,3.70
2022-12-03T18:59:47.180Z,3.80
2022-12-03T19:02:45.910Z,3.80
2022-12-03T19:05:05.121Z,3.70
2022-12-03T19:07:32.247Z,3.70
2022-12-03T19:09:59.597Z,3.80
2022-12-03T19:12:26.645Z,3.80
2022-12-03T19:14:53.727Z,3.80
2022-12-03T19:17:21.709Z,3.80
2022-12-03T19:19:48.939Z,3.80
2022-12-03T19:22:16.129Z,3.80
2022-12-03T19:24:43.914Z,3.80
2022-12-03T19:27:10.981Z,3.70
2022-12-03T19:29:38.177Z,3.80
2022-12-03T19:32:05.508Z,3.70
2022-12-03T19:34:32.765Z,3.70
2022-12-03T19:37:00.214Z,3.70
2022-12-03T19:39:27.291Z,3.70
2022-12-03T19:41:55.028Z,3.80
2022-12-03T19:44:22.138Z,3.80
2022-12-03T19:46:50.222Z,3.70
2022-12-03T19:49:20.853Z,3.70
2022-12-03T19:51:48.604Z,3.70
2022-12-03T19:54:16.671Z,3.80
2022-12-03T19:56:44.668Z,3.80
2022-12-03T19:59:13.158Z,3.80
2022-12-03T20:01:40.912Z,3.80
2022-12-03T20:04:08.935Z,3.80
2022-12-03T20:06:39.301Z,3.80
2022-12-03T20:09:12.000Z,3.80
2022-12-03T20:11:42.515Z,3.80
2022-12-03T20:14:13.251Z,3.80
2022-12-03T20:16:41.198Z,3.80
2022-12-03T20:19:10.863Z,3.80
2022-12-03T20:21:39.367Z,3.80
2022-12-03T20:24:07.828Z,3.80
2022-12-03T20:26:36.691Z,3.80
2022-12-03T20:29:04.032Z,3.80
2022-12-03T20:31:32.711Z,3.80
2022-12-03T20:34:01.964Z,3.80
2022-12-03T20:36:31.090Z,3.80
2022-12-03T20:39:00.565Z,3.80
2022-12-03T20:41:28.103Z,3.80
2022-12-03T20:43:56.134Z,3.80
2022-12-03T20:46:29.906Z,3.70
2022-12-03T20:48:58.612Z,3.80
2022-12-03T20:51:28.608Z,3.80
2022-12-03T20:53:56.995Z,3.80
2022-12-03T20:56:27.054Z,3.80
2022-12-03T20:58:54.965Z,3.80
2022-12-03T21:01:24.961Z,3.80
2022-12-03T21:03:54.299Z,3.80
2022-12-03T21:06:23.055Z,3.80
2022-12-03T21:08:52.355Z,3.80
2022-12-03T21:11:24.044Z,3.80
2022-12-03T21:13:53.597Z,3.80
2022-12-03T21:16:51.913Z,3.80
2022-12-03T21:19:13.158Z,3.80
2022-12-03T21:21:40.275Z,3.80
2022-12-03T21:24:07.626Z,3.80
2022-12-03T21:26:34.710Z,3.80
2022-12-03T21:29:01.761Z,3.80
2022-12-03T21:31:30.395Z,3.80
2022-12-03T21:33:57.917Z,3.80
2022-12-03T21:36:25.827Z,3.70
2022-12-03T21:38:53.390Z,3.70
2022-12-03T21:41:20.555Z,3.70
2022-12-03T21:43:47.837Z,3.70
2022-12-03T21:47:09.950Z,3.80
2022-12-03T21:49:04.946Z,3.80
2022-12-03T21:51:32.115Z,3.70
2022-12-03T21:53:59.285Z,3.70
2022-12-03T21:56:26.516Z,3.70
2022-12-03T21:58:53.719Z,3.70
2022-12-03T22:01:23.430Z,3.70
2022-12-03T22:03:51.600Z,3.80
2022-12-03T22:06:20.017Z,3.70
2022-12-03T22:08:47.952Z,3.80
2022-12-03T22:11:19.126Z,3.80
2022-12-03T22:13:46.570Z,3.80
2022-12-03T22:16:16.621Z,3.80
2022-12-03T22:18:44.037Z,3.80
2022-12-03T22:21:13.796Z,3.80
2022-12-03T22:23:40.877Z,3.80
2022-12-03T22:26:10.972Z,3.80
2022-12-03T22:28:38.425Z,3.80
2022-12-03T22:31:07.287Z,3.80
2022-12-03T22:33:35.879Z,3.70
2022-12-03T22:36:07.914Z,3.70
2022-12-03T22:38:35.386Z,3.80
2022-12-03T22:41:07.538Z,3.70
2022-12-03T22:43:37.294Z,3.70
2022-12-03T22:46:06.479Z,3.70
2022-12-03T22:48:34.589Z,3.70
2022-12-03T22:51:01.741Z,3.70
2022-12-03T22:53:28.900Z,3.70
2022-12-03T22:55:57.440Z,3.70
2022-12-03T22:58:25.900Z,3.60
2022-12-03T23:00:56.257Z,3.70
2022-12-03T23:03:27.001Z,3.70
2022-12-03T23:05:54.275Z,3.60
2022-12-03T23:08:22.066Z,3.60
2022-12-03T23:10:52.210Z,3.60
2022-12-03T23:13:20.612Z,3.60
2022-12-03T23:15:51.540Z,3.60
2022-12-03T23:18:19.969Z,3.70
2022-12-03T23:20:50.151Z,3.70
2022-12-03T23:23:18.745Z,3.70
2022-12-03T23:25:57.808Z,3.70
2022-12-03T23:28:25.951Z,3.60
2022-12-03T23:30:53.763Z,3.60
2022-12-03T23:33:20.894Z,3.70
2022-12-03T23:35:48.137Z,3.70
2022-12-03T23:38:15.201Z,3.70
2022-12-03T23:40:47.706Z,3.60
2022-12-03T23:43:15.740Z,3.60
2022-12-03T23:45:43.099Z,3.60
2022-12-03T23:48:10.451Z,3.70
2022-12-03T23:50:41.592Z,3.70
2022-12-03T23:53:09.177Z,3.60
2022-12-03T23:55:40.530Z,3.60
2022-12-03T23:58:07.747Z,3.60
